createdAt,value
2023-02-05T00:03:11.954Z,13.70
2023-02-05T00:08:13.802Z,6.90
2023-02-05T00:13:21.576Z,6.40
2023-02-05T00:18:23.272Z,14.80
2023-02-05T00:23:24.940Z,10.50
2023-02-05T00:33:28.367Z,12.20
2023-02-05T00:43:32.419Z,11.00
2023-02-05T00:48:42.538Z,12.50
2023-02-05T00:53:44.282Z,15.60
2023-02-05T00:58:47.934Z,13.70
2023-02-05T01:03:49.683Z,15.20
2023-02-05T01:08:51.769Z,13.20
2023-02-05T01:13:53.509Z,6.50
2023-02-05T01:18:56.774Z,11.70
2023-02-05T01:24:00.144Z,9.30
2023-02-05T01:29:02.124Z,11.30
2023-02-05T01:34:03.920Z,10.10
2023-02-05T01:39:05.699Z,9.30
2023-02-05T01:44:13.872Z,11.30
2023-02-05T01:49:21.657Z,8.30
2023-02-05T01:54:28.703Z,9.60
2023-02-05T01:59:34.190Z,8.60
2023-02-05T02:04:43.798Z,7.90
2023-02-05T02:09:47.378Z,7.40
2023-02-05T02:14:52.791Z,10.10
2023-02-05T02:20:05.314Z,12.90
2023-02-05T02:25:26.062Z,14.30
2023-02-05T02:30:37.967Z,12.20
2023-02-05T02:40:53.875Z,10.70
2023-02-05T02:46:04.527Z,7.40
2023-02-05T02:51:08.395Z,10.70
2023-02-05T02:56:13.640Z,9.90
2023-02-05T03:01:19.666Z,9.20
2023-02-05T03:06:22.964Z,11.30
2023-02-05T03:11:26.353Z,15.00
2023-02-05T03:16:28.624Z,18.70
2023-02-05T03:21:35.064Z,16.50
2023-02-05T03:26:38.362Z,15.70
2023-02-05T03:32:04.598Z,14.00
2023-02-05T03:37:42.454Z,11.60
2023-02-05T03:43:06.723Z,15.10
2023-02-05T03:48:36.865Z,14.00
2023-02-05T03:54:00.506Z,16.30
2023-02-05T03:59:04.339Z,14.00
2023-02-05T04:04:06.415Z,13.00
2023-02-05T04:09:10.549Z,15.00
2023-02-05T04:14:12.998Z,12.80
2023-02-05T04:19:15.376Z,17.20
2023-02-05T04:24:17.495Z,16.90
2023-02-05T04:29:20.611Z,12.30
2023-02-05T04:34:24.171Z,20.20
2023-02-05T04:39:26.352Z,13.10
2023-02-05T04:44:28.505Z,29.00
2023-02-05T04:49:32.401Z,24.60
2023-02-05T04:54:35.894Z,21.90
2023-02-05T04:59:37.700Z,21.90
2023-02-05T05:04:41.098Z,18.30
2023-02-05T05:09:43.778Z,18.90
2023-02-05T05:14:45.420Z,22.00
2023-02-05T05:19:47.157Z,20.90
2023-02-05T05:24:48.856Z,22.10
2023-02-05T05:29:50.843Z,19.20
2023-02-05T05:34:52.684Z,27.30
2023-02-05T05:40:12.895Z,28.50
2023-02-05T05:45:14.671Z,22.40
2023-02-05T05:50:16.633Z,20.80
2023-02-05T05:55:18.328Z,17.20
2023-02-05T06:00:20.427Z,13.30
2023-02-05T06:05:22.249Z,20.00
2023-02-05T06:10:24.849Z,19.80
2023-02-05T06:15:27.158Z,24.30
2023-02-05T06:20:28.902Z,19.30
2023-02-05T06:25:30.545Z,24.60
2023-02-05T06:30:32.325Z,23.00
2023-02-05T06:35:34.248Z,26.60
2023-02-05T06:40:36.397Z,26.80
2023-02-05T06:45:38.249Z,27.80
2023-02-05T06:50:40.092Z,28.80
2023-02-05T06:55:41.778Z,26.90
2023-02-05T07:00:43.619Z,23.80
2023-02-05T07:05:45.387Z,26.60
2023-02-05T07:10:47.088Z,20.60
2023-02-05T07:15:49.701Z,21.20
2023-02-05T07:20:51.568Z,23.20
2023-02-05T07:25:53.289Z,24.40
2023-02-05T07:30:55.485Z,22.10
2023-02-05T07:35:57.246Z,29.10
2023-02-05T07:40:59.011Z,20.50
2023-02-05T07:46:03.538Z,19.10
2023-02-05T07:51:06.609Z,23.40
2023-02-05T07:56:08.408Z,27.60
2023-02-05T08:01:10.344Z,23.40
2023-02-05T08:06:15.298Z,24.30
2023-02-05T08:11:17.981Z,19.30
2023-02-05T08:16:19.884Z,16.70
2023-02-05T08:21:21.938Z,14.20
2023-02-05T08:26:23.829Z,14.60
2023-02-05T08:31:26.082Z,14.90
2023-02-05T08:36:29.214Z,15.80
2023-02-05T08:41:30.999Z,20.40
2023-02-05T08:51:51.666Z,9.90
2023-02-05T08:56:53.464Z,11.30
2023-02-05T09:01:55.124Z,11.30
2023-02-05T09:11:58.822Z,10.60
2023-02-05T09:17:00.529Z,12.60
2023-02-05T09:34:49.496Z,9.80
2023-02-05T09:50:37.972Z,13.50
2023-02-05T09:55:44.993Z,9.90
2023-02-05T10:00:51.057Z,9.10
2023-02-05T10:06:16.216Z,6.80
2023-02-05T10:11:34.600Z,6.30
2023-02-05T10:16:51.752Z,8.70
2023-02-05T10:22:01.669Z,7.90
2023-02-05T10:27:20.644Z,4.70
2023-02-05T10:32:34.578Z,5.20
2023-02-05T10:37:44.297Z,6.10
2023-02-05T10:43:10.726Z,7.10
2023-02-05T10:48:31.801Z,10.10
2023-02-05T10:53:34.504Z,8.60
2023-02-05T10:58:55.096Z,10.80
2023-02-05T11:04:01.883Z,8.20
2023-02-05T11:09:24.170Z,7.90
2023-02-05T11:14:32.763Z,5.00
2023-02-05T11:19:35.085Z,6.90
2023-02-05T11:24:42.502Z,5.80
2023-02-05T11:29:44.227Z,5.80
2023-02-05T11:34:46.329Z,4.10
2023-02-05T11:39:53.869Z,4.50
2023-02-05T11:45:02.449Z,5.00
2023-02-05T11:50:06.527Z,5.80
2023-02-05T11:55:25.647Z,4.40
2023-02-05T12:00:28.281Z,5.00
2023-02-05T12:05:35.712Z,6.20
2023-02-05T12:11:01.126Z,4.10
2023-02-05T12:16:26.071Z,5.70
2023-02-05T12:22:15.513Z,4.50
2023-02-05T12:27:32.495Z,5.10
2023-02-05T12:32:53.200Z,4.30
2023-02-05T12:38:32.102Z,7.60
2023-02-05T12:43:42.956Z,6.50
2023-02-05T12:49:05.217Z,5.80
2023-02-05T12:54:22.104Z,5.80
2023-02-05T13:00:01.964Z,6.60
2023-02-05T13:05:13.629Z,7.10
2023-02-05T13:10:28.278Z,6.90
2023-02-05T13:15:43.743Z,11.50
2023-02-05T13:21:19.709Z,9.10
2023-02-05T13:26:48.848Z,5.80
2023-02-05T13:31:54.700Z,9.70
2023-02-05T13:37:17.820Z,7.00
2023-02-05T13:42:47.064Z,6.90
2023-02-05T13:48:22.675Z,6.50
2023-02-05T13:53:39.821Z,5.60
2023-02-05T13:58:51.007Z,5.20
2023-02-05T14:04:07.250Z,7.20
2023-02-05T14:09:24.312Z,6.00
2023-02-05T14:14:25.949Z,8.50
2023-02-05T14:24:49.987Z,9.50
2023-02-05T14:29:52.261Z,12.30
2023-02-05T14:35:28.284Z,12.50
2023-02-05T14:40:37.079Z,33.60
2023-02-05T14:45:47.740Z,25.60
2023-02-05T14:51:08.767Z,11.50
2023-02-05T14:56:26.084Z,11.90
2023-02-05T15:01:42.631Z,13.40
2023-02-05T15:06:45.467Z,9.30
2023-02-05T15:12:08.719Z,10.30
2023-02-05T15:17:11.230Z,10.90
2023-02-05T15:22:29.185Z,13.80
2023-02-05T15:27:48.198Z,10.40
2023-02-05T15:32:57.498Z,10.50
2023-02-05T15:38:04.115Z,12.80
2023-02-05T15:43:20.522Z,10.70
2023-02-05T15:48:26.393Z,9.20
2023-02-05T15:53:38.386Z,12.40
2023-02-05T15:58:50.538Z,12.40
2023-02-05T16:03:52.336Z,18.10
2023-02-05T16:08:54.654Z,16.20
2023-02-05T16:14:03.820Z,14.80
2023-02-05T16:19:13.790Z,11.90
2023-02-05T16:24:27.344Z,14.30
2023-02-05T16:29:47.615Z,14.20
2023-02-05T16:34:50.476Z,12.40
2023-02-05T16:39:54.993Z,25.50
2023-02-05T16:45:09.413Z,34.60
2023-02-05T16:50:41.282Z,24.30
2023-02-05T17:00:55.924Z,39.20
2023-02-05T17:06:01.027Z,19.30
2023-02-05T17:11:05.635Z,20.30
2023-02-05T17:16:27.771Z,15.60
2023-02-05T17:21:36.337Z,13.00
2023-02-05T17:26:40.906Z,15.10
2023-02-05T17:31:42.848Z,11.80
2023-02-05T17:36:44.915Z,10.40
2023-02-05T17:42:06.175Z,14.10
2023-02-05T17:47:09.797Z,13.40
2023-02-05T17:52:11.996Z,19.30
2023-02-05T17:57:19.527Z,23.50
2023-02-05T18:02:21.364Z,25.10
2023-02-05T18:07:30.919Z,27.60
2023-02-05T18:12:33.458Z,22.60
2023-02-05T18:17:35.624Z,15.90
2023-02-05T18:22:38.114Z,17.50
2023-02-05T18:27:39.864Z,15.80
2023-02-05T18:32:43.024Z,17.30
2023-02-05T18:37:45.352Z,13.40
2023-02-05T18:47:49.446Z,14.60
2023-02-05T18:52:51.375Z,12.70
2023-02-05T18:57:53.316Z,11.20
2023-02-05T19:02:56.107Z,17.60
2023-02-05T19:07:59.114Z,31.00
2023-02-05T19:13:01.092Z,38.30
2023-02-05T19:18:02.974Z,84.00
2023-02-05T19:23:04.786Z,27.20
2023-02-05T19:33:08.531Z,30.00
2023-02-05T19:38:10.590Z,27.10
2023-02-05T19:43:17.533Z,36.70
2023-02-05T19:48:19.454Z,26.20
2023-02-05T19:53:22.643Z,25.60
2023-02-05T19:58:24.363Z,31.60
2023-02-05T20:08:31.036Z,34.50
2023-02-05T20:13:36.758Z,34.90
2023-02-05T20:18:40.474Z,34.20
2023-02-05T20:23:42.454Z,28.90
2023-02-05T20:29:05.010Z,51.70
2023-02-05T20:34:18.270Z,67.60
2023-02-05T20:39:21.131Z,59.70
2023-02-05T20:44:23.077Z,143.60
2023-02-05T20:49:25.817Z,81.80
2023-02-05T20:54:27.665Z,100.60
2023-02-05T20:59:33.738Z,85.40
2023-02-05T21:04:36.546Z,99.20
2023-02-05T21:09:38.267Z,63.50
2023-02-05T21:19:42.433Z,49.90
2023-02-05T21:24:44.096Z,50.30
2023-02-05T21:39:50.906Z,49.60
2023-02-05T21:44:54.621Z,53.00
2023-02-05T21:49:56.330Z,44.80
2023-02-05T21:59:59.654Z,28.30
2023-02-05T22:05:01.418Z,32.40
2023-02-05T22:10:03.464Z,33.50
2023-02-05T22:15:12.343Z,22.60
2023-02-05T22:20:14.204Z,29.50
2023-02-05T22:25:15.879Z,64.60
2023-02-05T22:30:17.746Z,62.50
2023-02-05T22:35:19.436Z,82.30
2023-02-05T22:45:24.246Z,138.20
2023-02-05T22:50:26.251Z,73.80
2023-02-05T22:55:27.877Z,43.20
2023-02-05T23:00:31.074Z,39.20
2023-02-05T23:05:34.294Z,34.50
2023-02-05T23:10:36.465Z,27.20
2023-02-05T23:15:38.244Z,30.10
2023-02-05T23:20:41.141Z,30.20
2023-02-05T23:25:44.071Z,32.50
2023-02-05T23:30:45.923Z,35.60
2023-02-05T23:35:47.636Z,33.30
2023-02-05T23:45:52.120Z,28.50
2023-02-05T23:50:56.847Z,27.60
2023-02-05T23:55:58.522Z,30.70
